sensor_id;sensor_type;location;lat;lon;timestamp;temperature;humidity
7738;DHT22;29398;45.328;5.558;2022-08-21T00:00:37;21.00;99.90
7738;DHT22;29398;45.328;5.558;2022-08-21T00:01:43;21.00;99.90
7738;DHT22;29398;45.328;5.558;2022-08-21T00:02:47;20.90;99.90
7738;DHT22;29398;45.328;5.558;2022-08-21T00:03:50;20.90;99.90
7738;DHT22;29398;45.328;5.558;2022-08-21T00:04:52;20.90;99.90
7738;DHT22;29398;45.328;5.558;2022-08-21T00:05:54;20.90;99.90
7738;DHT22;29398;45.328;5.558;2022-08-21T00:06:55;20.90;99.90
7738;DHT22;29398;45.328;5.558;2022-08-21T00:07:58;20.90;99.90
7738;DHT22;29398;45.328;5.558;2022-08-21T00:08:59;20.90;99.90
7738;DHT22;29398;45.328;5.558;2022-08-21T00:10:02;20.90;99.80
7738;DHT22;29398;45.328;5.558;2022-08-21T00:11:05;20.90;99.80
7738;DHT22;29398;45.328;5.558;2022-08-21T00:12:07;20.80;99.70
7738;DHT22;29398;45.328;5.558;2022-08-21T00:13:09;20.80;99.80
7738;DHT22;29398;45.328;5.558;2022-08-21T00:14:12;20.80;99.80
7738;DHT22;29398;45.328;5.558;2022-08-21T00:15:17;20.80;99.80
7738;DHT22;29398;45.328;5.558;2022-08-21T00:16:21;20.90;99.90
7738;DHT22;29398;45.328;5.558;2022-08-21T00:17:22;20.90;99.90
7738;DHT22;29398;45.328;5.558;2022-08-21T00:18:24;20.90;99.90
7738;DHT22;29398;45.328;5.558;2022-08-21T00:19:25;20.80;99.90
7738;DHT22;29398;45.328;5.558;2022-08-21T00:20:28;20.80;99.90
7738;DHT22;29398;45.328;5.558;2022-08-21T00:21:29;20.80;99.90
7738;DHT22;29398;45.328;5.558;2022-08-21T00:22:31;20.90;99.90
7738;DHT22;29398;45.328;5.558;2022-08-21T00:23:34;20.90;99.90
7738;DHT22;29398;45.328;5.558;2022-08-21T00:24:37;20.90;99.90
7738;DHT22;29398;45.328;5.558;2022-08-21T00:25:38;20.90;99.90
7738;DHT22;29398;45.328;5.558;2022-08-21T00:26:41;20.80;99.90
7738;DHT22;29398;45.328;5.558;2022-08-21T00:27:44;20.90;99.90
7738;DHT22;29398;45.328;5.558;2022-08-21T00:28:47;20.80;99.90
7738;DHT22;29398;45.328;5.558;2022-08-21T00:29:49;20.80;99.90
7738;DHT22;29398;45.328;5.558;2022-08-21T00:30:52;20.80;99.90
7738;DHT22;29398;45.328;5.558;2022-08-21T00:31:55;20.70;99.90
7738;DHT22;29398;45.328;5.558;2022-08-21T00:32:57;20.70;99.90
7738;DHT22;29398;45.328;5.558;2022-08-21T00:34:00;20.60;99.90
7738;DHT22;29398;45.328;5.558;2022-08-21T00:35:01;20.60;99.90
7738;DHT22;29398;45.328;5.558;2022-08-21T00:36:03;20.60;99.90
7738;DHT22;29398;45.328;5.558;2022-08-21T00:37:05;20.60;99.90
7738;DHT22;29398;45.328;5.558;2022-08-21T00:38:09;20.60;99.90
7738;DHT22;29398;45.328;5.558;2022-08-21T00:39:10;20.60;99.90
7738;DHT22;29398;45.328;5.558;2022-08-21T00:40:15;20.60;99.90
7738;DHT22;29398;45.328;5.558;2022-08-21T00:41:16;20.60;99.90
7738;DHT22;29398;45.328;5.558;2022-08-21T00:42:19;20.60;99.90
7738;DHT22;29398;45.328;5.558;2022-08-21T00:43:23;20.60;99.90
7738;DHT22;29398;45.328;5.558;2022-08-21T00:44:26;20.60;99.90
7738;DHT22;29398;45.328;5.558;2022-08-21T00:45:28;20.60;99.90
7738;DHT22;29398;45.328;5.558;2022-08-21T00:46:30;20.60;99.90
7738;DHT22;29398;45.328;5.558;2022-08-21T00:47:33;20.60;99.90
7738;DHT22;29398;45.328;5.558;2022-08-21T00:48:35;20.60;99.90
7738;DHT22;29398;45.328;5.558;2022-08-21T00:49:36;20.60;99.90
7738;DHT22;29398;45.328;5.558;2022-08-21T00:50:43;20.50;99.90
7738;DHT22;29398;45.328;5.558;2022-08-21T00:51:49;20.50;99.90
7738;DHT22;29398;45.328;5.558;2022-08-21T00:52:51;20.50;99.90
7738;DHT22;29398;45.328;5.558;2022-08-21T00:53:57;20.50;99.90
7738;DHT22;29398;45.328;5.558;2022-08-21T00:55:02;20.40;99.90
7738;DHT22;29398;45.328;5.558;2022-08-21T00:56:05;20.40;99.90
7738;DHT22;29398;45.328;5.558;2022-08-21T00:57:12;20.40;99.90
7738;DHT22;29398;45.328;5.558;2022-08-21T00:58:16;20.40;99.90
7738;DHT22;29398;45.328;5.558;2022-08-21T00:59:20;20.40;99.90
7738;DHT22;29398;45.328;5.558;2022-08-21T01:00:26;20.40;99.90
7738;DHT22;29398;45.328;5.558;2022-08-21T01:01:29;20.40;99.90
7738;DHT22;29398;45.328;5.558;2022-08-21T01:02:30;20.40;99.90
7738;DHT22;29398;45.328;5.558;2022-08-21T01:03:34;20.40;99.90
7738;DHT22;29398;45.328;5.558;2022-08-21T01:04:36;20.30;99.90
7738;DHT22;29398;45.328;5.558;2022-08-21T01:05:38;20.30;99.90
7738;DHT22;29398;45.328;5.558;2022-08-21T01:06:39;20.30;99.90
7738;DHT22;29398;45.328;5.558;2022-08-21T01:07:42;20.30;99.90
7738;DHT22;29398;45.328;5.558;2022-08-21T01:08:45;20.30;99.90
7738;DHT22;29398;45.328;5.558;2022-08-21T01:09:48;20.30;99.90
7738;DHT22;29398;45.328;5.558;2022-08-21T01:10:50;20.30;99.90
7738;DHT22;29398;45.328;5.558;2022-08-21T01:11:53;20.20;99.90
7738;DHT22;29398;45.328;5.558;2022-08-21T01:12:56;20.20;99.90
7738;DHT22;29398;45.328;5.558;2022-08-21T01:13:59;20.10;99.90
7738;DHT22;29398;45.328;5.558;2022-08-21T01:15:03;20.10;99.90
7738;DHT22;29398;45.328;5.558;2022-08-21T01:16:09;20.10;99.90
7738;DHT22;29398;45.328;5.558;2022-08-21T01:17:13;20.10;99.90
7738;DHT22;29398;45.328;5.558;2022-08-21T01:18:16;20.10;99.90
7738;DHT22;29398;45.328;5.558;2022-08-21T01:19:21;20.10;99.90
7738;DHT22;29398;45.328;5.558;2022-08-21T01:20:23;20.00;99.90
7738;DHT22;29398;45.328;5.558;2022-08-21T01:21:27;20.00;99.90
7738;DHT22;29398;45.328;5.558;2022-08-21T01:22:28;20.00;99.90
7738;DHT22;29398;45.328;5.558;2022-08-21T01:23:31;20.00;99.90
7738;DHT22;29398;45.328;5.558;2022-08-21T01:24:35;20.00;99.90
7738;DHT22;29398;45.328;5.558;2022-08-21T01:25:37;20.00;99.90
7738;DHT22;29398;45.328;5.558;2022-08-21T01:26:39;20.00;99.90
7738;DHT22;29398;45.328;5.558;2022-08-21T01:27:41;20.00;99.90
7738;DHT22;29398;45.328;5.558;2022-08-21T01:28:47;20.00;99.90
7738;DHT22;29398;45.328;5.558;2022-08-21T01:29:54;20.00;99.90
7738;DHT22;29398;45.328;5.558;2022-08-21T01:30:58;19.90;99.90
7738;DHT22;29398;45.328;5.558;2022-08-21T01:32:05;20.00;99.90
7738;DHT22;29398;45.328;5.558;2022-08-21T01:33:06;20.00;99.90
7738;DHT22;29398;45.328;5.558;2022-08-21T01:34:08;20.00;99.90
7738;DHT22;29398;45.328;5.558;2022-08-21T01:35:13;20.00;99.90
7738;DHT22;29398;45.328;5.558;2022-08-21T01:36:15;20.00;99.90
7738;DHT22;29398;45.328;5.558;2022-08-21T01:37:19;20.00;99.90
7738;DHT22;29398;45.328;5.558;2022-08-21T01:38:23;20.00;99.90
7738;DHT22;29398;45.328;5.558;2022-08-21T01:39:25;20.10;99.90
7738;DHT22;29398;45.328;5.558;2022-08-21T01:40:27;20.10;99.90
7738;DHT22;29398;45.328;5.558;2022-08-21T01:41:28;20.10;99.90
7738;DHT22;29398;45.328;5.558;2022-08-21T01:42:30;20.10;99.90
7738;DHT22;29398;45.328;5.558;2022-08-21T01:43:31;20.10;99.90
7738;DHT22;29398;45.328;5.558;2022-08-21T01:44:34;20.20;99.90
7738;DHT22;29398;45.328;5.558;2022-08-21T01:45:35;20.20;99.90
7738;DHT22;29398;45.328;5.558;2022-08-21T01:46:37;20.20;99.90
7738;DHT22;29398;45.328;5.558;2022-08-21T01:47:38;20.20;99.90
7738;DHT22;29398;45.328;5.558;2022-08-21T01:48:41;20.20;99.90
7738;DHT22;29398;45.328;5.558;2022-08-21T01:49:43;20.20;99.90
7738;DHT22;29398;45.328;5.558;2022-08-21T01:50:45;20.20;99.90
7738;DHT22;29398;45.328;5.558;2022-08-21T01:51:46;20.20;99.90
7738;DHT22;29398;45.328;5.558;2022-08-21T01:52:50;20.20;99.90
7738;DHT22;29398;45.328;5.558;2022-08-21T01:53:53;20.20;99.90
7738;DHT22;29398;45.328;5.558;2022-08-21T01:54:55;20.20;99.90
7738;DHT22;29398;45.328;5.558;2022-08-21T01:55:57;20.20;99.90
7738;DHT22;29398;45.328;5.558;2022-08-21T01:56:59;20.20;99.90
7738;DHT22;29398;45.328;5.558;2022-08-21T01:58:01;20.20;99.90
7738;DHT22;29398;45.328;5.558;2022-08-21T01:59:03;20.30;99.90
7738;DHT22;29398;45.328;5.558;2022-08-21T02:00:06;20.30;99.90
7738;DHT22;29398;45.328;5.558;2022-08-21T02:01:13;20.30;99.90
7738;DHT22;29398;45.328;5.558;2022-08-21T02:02:15;20.30;99.90
7738;DHT22;29398;45.328;5.558;2022-08-21T02:03:16;20.30;99.90
7738;DHT22;29398;45.328;5.558;2022-08-21T02:04:18;20.30;99.90
7738;DHT22;29398;45.328;5.558;2022-08-21T02:05:20;20.10;99.90
7738;DHT22;29398;45.328;5.558;2022-08-21T02:06:22;20.10;99.90
7738;DHT22;29398;45.328;5.558;2022-08-21T02:07:23;20.10;99.90
7738;DHT22;29398;45.328;5.558;2022-08-21T02:08:27;20.10;99.90
7738;DHT22;29398;45.328;5.558;2022-08-21T02:09:29;20.10;99.90
7738;DHT22;29398;45.328;5.558;2022-08-21T02:10:31;20.10;99.90
7738;DHT22;29398;45.328;5.558;2022-08-21T02:11:33;20.10;99.90
7738;DHT22;29398;45.328;5.558;2022-08-21T02:12:36;20.10;99.90
7738;DHT22;29398;45.328;5.558;2022-08-21T02:13:37;20.00;99.90
7738;DHT22;29398;45.328;5.558;2022-08-21T02:14:39;20.00;99.90
7738;DHT22;29398;45.328;5.558;2022-08-21T02:15:41;20.00;99.90
7738;DHT22;29398;45.328;5.558;2022-08-21T02:16:44;20.00;99.90
7738;DHT22;29398;45.328;5.558;2022-08-21T02:17:48;20.00;99.90
7738;DHT22;29398;45.328;5.558;2022-08-21T02:18:50;20.00;99.90
7738;DHT22;29398;45.328;5.558;2022-08-21T02:19:51;20.10;99.90
7738;DHT22;29398;45.328;5.558;2022-08-21T02:20:53;20.10;99.90
7738;DHT22;29398;45.328;5.558;2022-08-21T02:21:54;20.10;99.90
7738;DHT22;29398;45.328;5.558;2022-08-21T02:22:57;20.10;99.90
7738;DHT22;29398;45.328;5.558;2022-08-21T02:23:59;20.10;99.90
7738;DHT22;29398;45.328;5.558;2022-08-21T02:25:01;20.10;99.90
7738;DHT22;29398;45.328;5.558;2022-08-21T02:26:05;20.10;99.90
7738;DHT22;29398;45.328;5.558;2022-08-21T02:27:08;20.10;99.90
7738;DHT22;29398;45.328;5.558;2022-08-21T02:28:12;20.10;99.90
7738;DHT22;29398;45.328;5.558;2022-08-21T02:29:14;20.10;99.90
7738;DHT22;29398;45.328;5.558;2022-08-21T02:30:17;20.10;99.90
7738;DHT22;29398;45.328;5.558;2022-08-21T02:31:19;20.10;99.90
7738;DHT22;29398;45.328;5.558;2022-08-21T02:32:20;20.10;99.90
7738;DHT22;29398;45.328;5.558;2022-08-21T02:33:23;20.10;99.90
7738;DHT22;29398;45.328;5.558;2022-08-21T02:34:24;21.20;99.90
7738;DHT22;29398;45.328;5.558;2022-08-21T02:35:27;20.00;99.90
7738;DHT22;29398;45.328;5.558;2022-08-21T02:36:28;20.00;99.90
7738;DHT22;29398;45.328;5.558;2022-08-21T02:37:30;20.00;99.90
7738;DHT22;29398;45.328;5.558;2022-08-21T02:38:33;20.00;99.90
7738;DHT22;29398;45.328;5.558;2022-08-21T02:39:39;20.00;99.90
7738;DHT22;29398;45.328;5.558;2022-08-21T02:40:43;20.00;99.90
7738;DHT22;29398;45.328;5.558;2022-08-21T02:41:46;20.00;99.90
7738;DHT22;29398;45.328;5.558;2022-08-21T02:42:47;20.00;99.90
7738;DHT22;29398;45.328;5.558;2022-08-21T02:43:49;20.00;99.90
7738;DHT22;29398;45.328;5.558;2022-08-21T02:44:51;20.00;99.90
7738;DHT22;29398;45.328;5.558;2022-08-21T02:45:54;20.00;99.90
7738;DHT22;29398;45.328;5.558;2022-08-21T02:46:56;19.90;99.90
7738;DHT22;29398;45.328;5.558;2022-08-21T02:48:00;19.90;99.90
7738;DHT22;29398;45.328;5.558;2022-08-21T02:49:01;19.90;99.90
7738;DHT22;29398;45.328;5.558;2022-08-21T02:50:05;19.90;99.90
7738;DHT22;29398;45.328;5.558;2022-08-21T02:51:08;19.90;99.90
7738;DHT22;29398;45.328;5.558;2022-08-21T02:52:11;19.90;99.90
7738;DHT22;29398;45.328;5.558;2022-08-21T02:53:14;19.80;99.90
7738;DHT22;29398;45.328;5.558;2022-08-21T02:54:17;19.80;99.90
7738;DHT22;29398;45.328;5.558;2022-08-21T02:55:20;19.80;99.90
7738;DHT22;29398;45.328;5.558;2022-08-21T02:56:22;19.80;99.90
7738;DHT22;29398;45.328;5.558;2022-08-21T02:57:23;19.80;99.90
7738;DHT22;29398;45.328;5.558;2022-08-21T02:58:28;19.80;99.90
7738;DHT22;29398;45.328;5.558;2022-08-21T02:59:29;19.70;99.90
7738;DHT22;29398;45.328;5.558;2022-08-21T03:00:32;19.70;99.90
7738;DHT22;29398;45.328;5.558;2022-08-21T03:01:33;19.70;99.90
7738;DHT22;29398;45.328;5.558;2022-08-21T03:02:35;19.70;99.90
7738;DHT22;29398;45.328;5.558;2022-08-21T03:03:37;19.70;99.90
7738;DHT22;29398;45.328;5.558;2022-08-21T03:04:39;19.60;99.90
7738;DHT22;29398;45.328;5.558;2022-08-21T03:05:42;19.60;99.90
7738;DHT22;29398;45.328;5.558;2022-08-21T03:06:44;19.60;99.90
7738;DHT22;29398;45.328;5.558;2022-08-21T03:07:48;19.60;99.90
7738;DHT22;29398;45.328;5.558;2022-08-21T03:08:50;19.50;99.90
7738;DHT22;29398;45.328;5.558;2022-08-21T03:09:51;19.40;99.90
7738;DHT22;29398;45.328;5.558;2022-08-21T03:10:55;19.50;99.90
7738;DHT22;29398;45.328;5.558;2022-08-21T03:11:56;19.50;99.90
7738;DHT22;29398;45.328;5.558;2022-08-21T03:12:58;19.40;99.90
7738;DHT22;29398;45.328;5.558;2022-08-21T03:14:00;19.40;99.90
7738;DHT22;29398;45.328;5.558;2022-08-21T03:15:02;19.40;99.90
7738;DHT22;29398;45.328;5.558;2022-08-21T03:16:03;19.40;99.90
7738;DHT22;29398;45.328;5.558;2022-08-21T03:17:05;19.40;99.90
7738;DHT22;29398;45.328;5.558;2022-08-21T03:18:08;19.40;99.90
7738;DHT22;29398;45.328;5.558;2022-08-21T03:19:12;19.40;99.90
7738;DHT22;29398;45.328;5.558;2022-08-21T03:20:15;19.40;99.90
7738;DHT22;29398;45.328;5.558;2022-08-21T03:21:18;19.40;99.90
7738;DHT22;29398;45.328;5.558;2022-08-21T03:22:20;19.40;99.90
7738;DHT22;29398;45.328;5.558;2022-08-21T03:23:24;19.40;99.90
7738;DHT22;29398;45.328;5.558;2022-08-21T03:24:25;19.30;99.90
7738;DHT22;29398;45.328;5.558;2022-08-21T03:25:27;19.30;99.90
7738;DHT22;29398;45.328;5.558;2022-08-21T03:26:30;19.30;99.90
7738;DHT22;29398;45.328;5.558;2022-08-21T03:27:33;19.30;99.90
7738;DHT22;29398;45.328;5.558;2022-08-21T03:28:34;19.30;99.90
7738;DHT22;29398;45.328;5.558;2022-08-21T03:29:36;19.30;99.90
7738;DHT22;29398;45.328;5.558;2022-08-21T03:30:37;19.30;99.90
7738;DHT22;29398;45.328;5.558;2022-08-21T03:31:39;19.30;99.90
7738;DHT22;29398;45.328;5.558;2022-08-21T03:32:41;19.30;99.90
7738;DHT22;29398;45.328;5.558;2022-08-21T03:33:43;19.20;99.90
7738;DHT22;29398;45.328;5.558;2022-08-21T03:34:45;19.10;99.90
7738;DHT22;29398;45.328;5.558;2022-08-21T03:35:54;19.10;99.90
7738;DHT22;29398;45.328;5.558;2022-08-21T03:36:57;19.10;99.90
7738;DHT22;29398;45.328;5.558;2022-08-21T03:37:59;19.10;99.90
7738;DHT22;29398;45.328;5.558;2022-08-21T03:39:00;19.00;99.90
7738;DHT22;29398;45.328;5.558;2022-08-21T03:40:03;19.00;99.90
7738;DHT22;29398;45.328;5.558;2022-08-21T03:41:05;19.10;99.90
7738;DHT22;29398;45.328;5.558;2022-08-21T03:42:09;19.10;99.90
7738;DHT22;29398;45.328;5.558;2022-08-21T03:43:10;19.10;99.90
7738;DHT22;29398;45.328;5.558;2022-08-21T03:45:14;19.00;99.90
7738;DHT22;29398;45.328;5.558;2022-08-21T03:46:16;19.00;99.90
7738;DHT22;29398;45.328;5.558;2022-08-21T03:47:17;19.00;99.90
7738;DHT22;29398;45.328;5.558;2022-08-21T03:48:20;19.00;99.90
7738;DHT22;29398;45.328;5.558;2022-08-21T03:49:22;19.00;99.90
7738;DHT22;29398;45.328;5.558;2022-08-21T03:50:26;19.00;99.90
7738;DHT22;29398;45.328;5.558;2022-08-21T03:51:28;19.00;99.90
7738;DHT22;29398;45.328;5.558;2022-08-21T03:52:30;19.10;99.90
7738;DHT22;29398;45.328;5.558;2022-08-21T03:53:31;19.10;99.90
7738;DHT22;29398;45.328;5.558;2022-08-21T03:54:34;19.10;99.90
7738;DHT22;29398;45.328;5.558;2022-08-21T03:55:35;19.00;99.90
7738;DHT22;29398;45.328;5.558;2022-08-21T03:56:37;19.00;99.90
7738;DHT22;29398;45.328;5.558;2022-08-21T03:57:41;19.00;99.90
7738;DHT22;29398;45.328;5.558;2022-08-21T03:58:43;19.10;99.90
7738;DHT22;29398;45.328;5.558;2022-08-21T03:59:45;19.10;99.90
7738;DHT22;29398;45.328;5.558;2022-08-21T04:00:49;19.10;99.90
7738;DHT22;29398;45.328;5.558;2022-08-21T04:01:52;19.10;99.90
7738;DHT22;29398;45.328;5.558;2022-08-21T04:02:54;19.10;99.90
7738;DHT22;29398;45.328;5.558;2022-08-21T04:03:56;19.10;99.90
7738;DHT22;29398;45.328;5.558;2022-08-21T04:04:58;19.00;99.90
7738;DHT22;29398;45.328;5.558;2022-08-21T04:05:59;19.10;99.90
7738;DHT22;29398;45.328;5.558;2022-08-21T04:07:02;19.10;99.90
7738;DHT22;29398;45.328;5.558;2022-08-21T04:08:05;19.00;99.90
7738;DHT22;29398;45.328;5.558;2022-08-21T04:09:07;19.00;99.90
7738;DHT22;29398;45.328;5.558;2022-08-21T04:10:09;18.90;99.90
7738;DHT22;29398;45.328;5.558;2022-08-21T04:11:10;18.90;99.90
7738;DHT22;29398;45.328;5.558;2022-08-21T04:12:12;18.90;99.90
7738;DHT22;29398;45.328;5.558;2022-08-21T04:13:15;18.90;99.90
7738;DHT22;29398;45.328;5.558;2022-08-21T04:14:19;18.90;99.90
7738;DHT22;29398;45.328;5.558;2022-08-21T04:15:21;18.90;99.90
7738;DHT22;29398;45.328;5.558;2022-08-21T04:16:23;18.90;99.90
7738;DHT22;29398;45.328;5.558;2022-08-21T04:17:24;18.90;99.90
7738;DHT22;29398;45.328;5.558;2022-08-21T04:18:27;18.90;99.90
7738;DHT22;29398;45.328;5.558;2022-08-21T04:19:28;18.80;99.90
7738;DHT22;29398;45.328;5.558;2022-08-21T04:20:30;18.80;99.90
7738;DHT22;29398;45.328;5.558;2022-08-21T04:21:31;18.80;99.90
7738;DHT22;29398;45.328;5.558;2022-08-21T04:22:34;18.80;99.90
7738;DHT22;29398;45.328;5.558;2022-08-21T04:23:35;18.80;99.90
7738;DHT22;29398;45.328;5.558;2022-08-21T04:24:37;18.80;99.90
7738;DHT22;29398;45.328;5.558;2022-08-21T04:25:38;18.80;99.90
7738;DHT22;29398;45.328;5.558;2022-08-21T04:26:40;17.20;99.90
7738;DHT22;29398;45.328;5.558;2022-08-21T04:27:43;18.80;99.90
7738;DHT22;29398;45.328;5.558;2022-08-21T04:28:45;18.80;99.90
7738;DHT22;29398;45.328;5.558;2022-08-21T04:29:47;18.70;99.90
7738;DHT22;29398;45.328;5.558;2022-08-21T04:30:48;18.70;99.90
7738;DHT22;29398;45.328;5.558;2022-08-21T04:31:51;18.70;99.90
7738;DHT22;29398;45.328;5.558;2022-08-21T04:32:53;18.70;99.90
7738;DHT22;29398;45.328;5.558;2022-08-21T04:33:55;18.70;99.90
7738;DHT22;29398;45.328;5.558;2022-08-21T04:34:58;18.70;99.90
7738;DHT22;29398;45.328;5.558;2022-08-21T04:36:00;18.70;99.90
7738;DHT22;29398;45.328;5.558;2022-08-21T04:37:03;18.70;99.90
7738;DHT22;29398;45.328;5.558;2022-08-21T04:38:04;18.70;99.90
7738;DHT22;29398;45.328;5.558;2022-08-21T04:39:06;18.60;99.90
7738;DHT22;29398;45.328;5.558;2022-08-21T04:40:10;18.60;99.90
7738;DHT22;29398;45.328;5.558;2022-08-21T04:41:12;18.70;99.90
7738;DHT22;29398;45.328;5.558;2022-08-21T04:42:13;18.60;99.90
7738;DHT22;29398;45.328;5.558;2022-08-21T04:43:16;18.70;99.90
7738;DHT22;29398;45.328;5.558;2022-08-21T04:44:18;18.70;99.90
7738;DHT22;29398;45.328;5.558;2022-08-21T04:45:22;18.80;99.90
7738;DHT22;29398;45.328;5.558;2022-08-21T04:46:24;18.70;99.90
7738;DHT22;29398;45.328;5.558;2022-08-21T04:47:26;18.80;99.90
7738;DHT22;29398;45.328;5.558;2022-08-21T04:48:27;18.80;99.90
7738;DHT22;29398;45.328;5.558;2022-08-21T04:49:29;18.80;99.90
7738;DHT22;29398;45.328;5.558;2022-08-21T04:50:36;18.80;99.90
7738;DHT22;29398;45.328;5.558;2022-08-21T04:51:39;18.80;99.90
7738;DHT22;29398;45.328;5.558;2022-08-21T04:52:40;18.70;99.90
7738;DHT22;29398;45.328;5.558;2022-08-21T04:53:45;18.80;99.90
7738;DHT22;29398;45.328;5.558;2022-08-21T04:54:49;18.80;99.90
7738;DHT22;29398;45.328;5.558;2022-08-21T04:55:54;18.80;99.90
7738;DHT22;29398;45.328;5.558;2022-08-21T04:57:00;18.80;99.90
7738;DHT22;29398;45.328;5.558;2022-08-21T04:58:04;18.70;99.90
7738;DHT22;29398;45.328;5.558;2022-08-21T04:59:12;18.80;99.90
7738;DHT22;29398;45.328;5.558;2022-08-21T05:00:16;18.80;99.90
7738;DHT22;29398;45.328;5.558;2022-08-21T05:01:23;18.80;99.90
7738;DHT22;29398;45.328;5.558;2022-08-21T05:02:25;18.80;99.90
7738;DHT22;29398;45.328;5.558;2022-08-21T05:03:27;18.80;99.90
7738;DHT22;29398;45.328;5.558;2022-08-21T05:04:31;18.80;99.90
7738;DHT22;29398;45.328;5.558;2022-08-21T05:05:35;18.70;99.90
7738;DHT22;29398;45.328;5.558;2022-08-21T05:06:37;18.60;99.90
7738;DHT22;29398;45.328;5.558;2022-08-21T05:07:42;18.60;99.90
7738;DHT22;29398;45.328;5.558;2022-08-21T05:08:46;18.60;99.90
7738;DHT22;29398;45.328;5.558;2022-08-21T05:09:49;18.50;99.90
7738;DHT22;29398;45.328;5.558;2022-08-21T05:10:51;18.50;99.90
7738;DHT22;29398;45.328;5.558;2022-08-21T05:11:53;18.50;99.90
7738;DHT22;29398;45.328;5.558;2022-08-21T05:12:55;18.60;99.90
7738;DHT22;29398;45.328;5.558;2022-08-21T05:13:58;18.60;99.90
7738;DHT22;29398;45.328;5.558;2022-08-21T05:14:59;18.60;99.90
7738;DHT22;29398;45.328;5.558;2022-08-21T05:16:03;18.60;99.90
7738;DHT22;29398;45.328;5.558;2022-08-21T05:17:04;18.60;99.90
7738;DHT22;29398;45.328;5.558;2022-08-21T05:18:06;18.60;99.90
7738;DHT22;29398;45.328;5.558;2022-08-21T05:19:08;18.60;99.90
7738;DHT22;29398;45.328;5.558;2022-08-21T05:20:11;18.60;99.90
7738;DHT22;29398;45.328;5.558;2022-08-21T05:21:12;18.60;99.90
7738;DHT22;29398;45.328;5.558;2022-08-21T05:22:19;18.50;99.90
7738;DHT22;29398;45.328;5.558;2022-08-21T05:23:21;18.60;99.90
7738;DHT22;29398;45.328;5.558;2022-08-21T05:24:23;18.60;99.90
7738;DHT22;29398;45.328;5.558;2022-08-21T05:25:25;18.60;99.90
7738;DHT22;29398;45.328;5.558;2022-08-21T05:26:27;18.50;99.90
7738;DHT22;29398;45.328;5.558;2022-08-21T05:27:28;18.50;99.90
7738;DHT22;29398;45.328;5.558;2022-08-21T05:28:31;18.50;99.90
7738;DHT22;29398;45.328;5.558;2022-08-21T05:29:33;18.50;99.90
7738;DHT22;29398;45.328;5.558;2022-08-21T05:30:35;18.50;99.90
7738;DHT22;29398;45.328;5.558;2022-08-21T05:31:38;18.60;99.90
7738;DHT22;29398;45.328;5.558;2022-08-21T05:32:40;18.60;99.90
7738;DHT22;29398;45.328;5.558;2022-08-21T05:33:41;18.70;99.90
7738;DHT22;29398;45.328;5.558;2022-08-21T05:34:43;18.70;99.90
7738;DHT22;29398;45.328;5.558;2022-08-21T05:35:44;18.70;99.90
7738;DHT22;29398;45.328;5.558;2022-08-21T05:36:46;18.70;99.90
7738;DHT22;29398;45.328;5.558;2022-08-21T05:37:47;18.70;99.90
7738;DHT22;29398;45.328;5.558;2022-08-21T05:38:49;18.80;99.90
7738;DHT22;29398;45.328;5.558;2022-08-21T05:39:50;18.70;99.90
7738;DHT22;29398;45.328;5.558;2022-08-21T05:40:53;18.80;99.90
7738;DHT22;29398;45.328;5.558;2022-08-21T05:41:54;18.80;99.90
7738;DHT22;29398;45.328;5.558;2022-08-21T05:42:57;18.90;99.90
7738;DHT22;29398;45.328;5.558;2022-08-21T05:43:59;18.80;99.90
7738;DHT22;29398;45.328;5.558;2022-08-21T05:45:01;18.80;99.90
7738;DHT22;29398;45.328;5.558;2022-08-21T05:46:03;18.80;99.90
7738;DHT22;29398;45.328;5.558;2022-08-21T05:47:09;18.80;99.90
7738;DHT22;29398;45.328;5.558;2022-08-21T05:48:12;18.90;99.90
7738;DHT22;29398;45.328;5.558;2022-08-21T05:49:15;19.00;99.90
7738;DHT22;29398;45.328;5.558;2022-08-21T05:50:16;18.90;99.90
7738;DHT22;29398;45.328;5.558;2022-08-21T05:51:18;19.00;99.90
7738;DHT22;29398;45.328;5.558;2022-08-21T05:52:20;19.10;99.90
7738;DHT22;29398;45.328;5.558;2022-08-21T05:53:23;19.10;99.90
7738;DHT22;29398;45.328;5.558;2022-08-21T05:54:25;19.10;99.90
7738;DHT22;29398;45.328;5.558;2022-08-21T05:55:27;19.20;99.90
7738;DHT22;29398;45.328;5.558;2022-08-21T05:56:28;19.30;99.90
7738;DHT22;29398;45.328;5.558;2022-08-21T05:57:30;19.30;99.90
7738;DHT22;29398;45.328;5.558;2022-08-21T05:58:32;19.30;99.90
7738;DHT22;29398;45.328;5.558;2022-08-21T05:59:35;19.30;99.90
7738;DHT22;29398;45.328;5.558;2022-08-21T06:00:38;19.40;99.90
7738;DHT22;29398;45.328;5.558;2022-08-21T06:01:40;19.40;99.90
7738;DHT22;29398;45.328;5.558;2022-08-21T06:02:43;19.40;99.90
7738;DHT22;29398;45.328;5.558;2022-08-21T06:03:44;19.40;99.90
7738;DHT22;29398;45.328;5.558;2022-08-21T06:04:47;19.40;99.90
7738;DHT22;29398;45.328;5.558;2022-08-21T06:05:49;19.40;99.90
7738;DHT22;29398;45.328;5.558;2022-08-21T06:06:51;19.50;99.90
7738;DHT22;29398;45.328;5.558;2022-08-21T06:07:52;19.50;99.90
7738;DHT22;29398;45.328;5.558;2022-08-21T06:08:54;19.50;99.90
7738;DHT22;29398;45.328;5.558;2022-08-21T06:09:56;19.60;99.90
7738;DHT22;29398;45.328;5.558;2022-08-21T06:11:01;19.60;99.90
7738;DHT22;29398;45.328;5.558;2022-08-21T06:12:04;19.60;99.90
7738;DHT22;29398;45.328;5.558;2022-08-21T06:13:05;19.70;99.90
7738;DHT22;29398;45.328;5.558;2022-08-21T06:14:07;19.70;99.90
7738;DHT22;29398;45.328;5.558;2022-08-21T06:15:09;19.80;99.90
7738;DHT22;29398;45.328;5.558;2022-08-21T06:16:13;19.80;99.90
7738;DHT22;29398;45.328;5.558;2022-08-21T06:17:14;19.90;99.90
7738;DHT22;29398;45.328;5.558;2022-08-21T06:18:17;19.90;99.90
7738;DHT22;29398;45.328;5.558;2022-08-21T06:19:19;20.00;99.90
7738;DHT22;29398;45.328;5.558;2022-08-21T06:20:21;20.00;99.90
7738;DHT22;29398;45.328;5.558;2022-08-21T06:21:23;20.00;99.90
7738;DHT22;29398;45.328;5.558;2022-08-21T06:22:25;20.00;99.90
7738;DHT22;29398;45.328;5.558;2022-08-21T06:23:26;20.00;99.90
7738;DHT22;29398;45.328;5.558;2022-08-21T06:24:28;20.00;99.90
7738;DHT22;29398;45.328;5.558;2022-08-21T06:25:30;20.10;99.90
7738;DHT22;29398;45.328;5.558;2022-08-21T06:26:32;20.20;99.90
7738;DHT22;29398;45.328;5.558;2022-08-21T06:27:34;20.20;99.90
7738;DHT22;29398;45.328;5.558;2022-08-21T06:28:36;20.20;99.90
7738;DHT22;29398;45.328;5.558;2022-08-21T06:29:37;20.30;99.90
7738;DHT22;29398;45.328;5.558;2022-08-21T06:30:39;20.30;99.90
7738;DHT22;29398;45.328;5.558;2022-08-21T06:31:41;20.30;99.90
7738;DHT22;29398;45.328;5.558;2022-08-21T06:32:43;20.40;99.90
7738;DHT22;29398;45.328;5.558;2022-08-21T06:33:46;20.40;99.90
7738;DHT22;29398;45.328;5.558;2022-08-21T06:34:48;20.50;99.90
7738;DHT22;29398;45.328;5.558;2022-08-21T06:35:49;20.50;99.90
7738;DHT22;29398;45.328;5.558;2022-08-21T06:36:54;20.50;99.90
7738;DHT22;29398;45.328;5.558;2022-08-21T06:37:56;20.60;99.90
7738;DHT22;29398;45.328;5.558;2022-08-21T06:38:58;20.60;99.90
7738;DHT22;29398;45.328;5.558;2022-08-21T06:40:00;20.60;99.90
7738;DHT22;29398;45.328;5.558;2022-08-21T06:41:02;20.60;99.90
7738;DHT22;29398;45.328;5.558;2022-08-21T06:42:05;20.60;99.90